Time;durP1;ratioP1;P1;durP2;ratioP2;P2;SDS_P1;SDS_P2;PMS_P1;PMS_P2;Temp;Humidity;BMP_temperature;BMP_pressure;BME280_temperature;BME280_humidity;BME280_pressure;Samples;Min_cycle;Max_cycle;Signal;HPM_P1;HPM_P2
2022/01/04 00:02:16;;;;;;;;;6.00;4.50;;;;;11.73;95.74;99447.00;5052676;28;45386;-65
2022/01/04 00:04:41;;;;;;;;;3.00;3.00;;;;;11.72;95.79;99433.00;5044967;28;46289;-65
2022/01/04 00:07:07;;;;;;;;;4.00;4.00;;;;;11.69;95.89;99426.13;5053095;28;45419;-69
2022/01/04 00:09:34;;;;;;;;;6.25;5.25;;;;;11.72;96.30;99429.50;5040751;28;45355;-65
2022/01/04 00:13:22;;;;;;;;;5.00;5.00;;;;;11.70;96.50;99421.72;5054319;28;45501;-66
2022/01/04 00:14:45;;;;;;;;;6.25;5.50;;;;;11.69;96.12;99420.84;5061513;28;45473;-65
2022/01/04 00:17:11;;;;;;;;;4.25;4.25;;;;;11.69;96.02;99405.03;5056158;28;46094;-65
2022/01/04 00:19:36;;;;;;;;;3.50;3.50;;;;;11.71;96.37;99401.47;5037016;28;45443;-67
2022/01/04 00:22:04;;;;;;;;;4.50;3.75;;;;;11.70;96.18;99398.00;5035253;28;45801;-65
2022/01/04 00:24:29;;;;;;;;;6.25;4.00;;;;;11.70;96.49;99392.72;5048426;28;45178;-65
2022/01/04 00:26:54;;;;;;;;;2.25;2.25;;;;;11.68;96.74;99387.53;5057471;28;46212;-64
2022/01/04 00:29:20;;;;;;;;;4.75;2.50;;;;;11.66;96.83;99370.13;5040499;28;45196;-65
2022/01/04 00:31:45;;;;;;;;;2.00;2.00;;;;;11.68;96.85;99371.75;5038782;28;46133;-63
2022/01/04 00:34:10;;;;;;;;;3.25;3.00;;;;;11.68;96.83;99366.47;5054456;28;45646;-63
2022/01/04 00:36:36;;;;;;;;;1.50;1.50;;;;;11.68;96.69;99352.47;5032572;28;47091;-63
2022/01/04 00:39:03;;;;;;;;;3.50;2.00;;;;;11.66;96.69;99351.69;5055413;28;45422;-62
2022/01/04 00:41:28;;;;;;;;;1.75;1.75;;;;;11.61;97.07;99332.72;5055909;28;45437;-63
2022/01/04 00:43:53;;;;;;;;;3.75;3.75;;;;;11.68;96.94;99334.88;5056483;28;45205;-63
2022/01/04 00:46:19;;;;;;;;;6.00;4.00;;;;;11.64;96.96;99333.38;5055357;28;45515;-62
2022/01/04 00:51:29;;;;;;;;;2.25;2.00;;;;;11.61;97.53;99317.78;5056847;28;45489;-63
2022/01/04 00:53:54;;;;;;;;;3.00;2.50;;;;;11.61;97.73;99320.41;5037891;28;45371;-63
2022/01/04 00:56:20;;;;;;;;;2.00;2.00;;;;;11.61;98.28;99316.91;5055843;28;45403;-63
2022/01/04 00:58:45;;;;;;;;;3.00;1.50;;;;;11.58;98.65;99307.44;5058806;28;45402;-62
2022/01/04 01:01:10;;;;;;;;;1.75;1.00;;;;;11.58;98.55;99301.31;5060421;28;45342;-66
2022/01/04 01:03:36;;;;;;;;;2.00;2.00;;;;;11.57;98.54;99302.25;5061287;28;45312;-65
2022/01/04 01:06:01;;;;;;;;;1.00;1.00;;;;;11.59;98.73;99303.84;5060735;28;45465;-65
2022/01/04 01:08:26;;;;;;;;;1.00;0.50;;;;;11.56;99.20;99285.63;5065656;28;45281;-66
2022/01/04 01:10:52;;;;;;;;;0.25;0.25;;;;;11.59;98.86;99281.94;5061570;28;45392;-64
2022/01/04 01:13:17;;;;;;;;;2.75;1.00;;;;;11.60;98.72;99273.09;5056882;28;45547;-62
2022/01/04 01:15:45;;;;;;;;;2.75;0.75;;;;;11.59;98.52;99260.84;5060087;28;46127;-63
2022/01/04 01:18:10;;;;;;;;;1.00;1.00;;;;;11.64;98.54;99266.66;5060858;28;45418;-65
2022/01/04 01:20:36;;;;;;;;;0.75;0.75;;;;;11.65;97.85;99266.59;5061034;28;45283;-64
2022/01/04 01:23:02;;;;;;;;;2.50;1.00;;;;;11.67;98.64;99259.44;5061609;28;45267;-65
2022/01/04 01:25:28;;;;;;;;;2.75;2.75;;;;;11.67;98.68;99266.50;5062073;28;46759;-65
2022/01/04 01:27:53;;;;;;;;;1.00;1.00;;;;;11.68;98.07;99260.28;5064701;28;45710;-65
2022/01/04 01:30:19;;;;;;;;;1.00;1.00;;;;;11.69;98.98;99254.06;5061225;28;46153;-64
2022/01/04 01:32:45;;;;;;;;;1.50;1.25;;;;;11.71;98.50;99241.63;5060373;28;45458;-65
2022/01/04 01:35:10;;;;;;;;;5.25;4.00;;;;;11.67;98.71;99232.25;5065145;28;46622;-65
2022/01/04 01:37:36;;;;;;;;;8.00;7.50;;;;;11.52;99.15;99240.19;5062984;28;45376;-64
2022/01/04 01:40:04;;;;;;;;;6.00;5.50;;;;;11.35;100.00;99232.56;5061112;28;45371;-64
2022/01/04 01:42:29;;;;;;;;;6.25;6.25;;;;;11.17;100.00;99231.97;5060633;28;45242;-64
2022/01/04 01:44:54;;;;;;;;;9.50;7.50;;;;;11.01;100.00;99225.03;5055549;28;45514;-63
2022/01/04 01:47:20;;;;;;;;;10.75;7.00;;;;;10.72;100.00;99229.53;5039468;28;45312;-64
2022/01/04 01:49:45;;;;;;;;;5.25;4.25;;;;;10.47;100.00;99204.75;5038861;28;45364;-62
2022/01/04 01:52:11;;;;;;;;;6.25;5.25;;;;;10.23;100.00;99205.28;5039448;28;45301;-62
2022/01/04 01:54:37;;;;;;;;;6.25;5.00;;;;;10.01;100.00;99200.47;5040847;28;46280;-63
2022/01/04 01:57:02;;;;;;;;;5.50;5.50;;;;;9.76;100.00;99187.03;5041179;28;45331;-63
2022/01/04 01:59:28;;;;;;;;;4.50;4.50;;;;;9.62;100.00;99192.25;5038123;28;45246;-63
2022/01/04 02:01:53;;;;;;;;;4.00;3.00;;;;;9.44;100.00;99189.75;5038478;28;45532;-62
2022/01/04 02:04:19;;;;;;;;;7.00;6.00;;;;;9.33;100.00;99182.50;5039818;28;45467;-62
2022/01/04 02:06:45;;;;;;;;;3.00;3.00;;;;;9.29;100.00;99181.00;5020439;28;45453;-62
2022/01/04 02:09:10;;;;;;;;;5.00;5.00;;;;;9.27;100.00;99190.72;5004129;28;45328;-62
2022/01/04 02:11:36;;;;;;;;;5.00;4.00;;;;;9.25;100.00;99183.88;5040248;28;45328;-62
2022/01/04 02:14:03;;;;;;;;;6.75;6.00;;;;;9.16;100.00;99175.59;5039577;28;46122;-61
2022/01/04 02:16:30;;;;;;;;;5.00;5.00;;;;;9.11;100.00;99167.13;5037901;28;45384;-63
2022/01/04 02:19:06;;;;;;;;;5.50;5.25;;;;;9.15;100.00;99163.41;5038339;28;45245;-63
2022/01/04 02:21:33;;;;;;;;;8.00;7.00;;;;;9.10;100.00;99162.81;5038565;28;45467;-62
2022/01/04 02:24:00;;;;;;;;;6.75;5.50;;;;;9.08;100.00;99156.81;5037479;28;45383;-62
2022/01/04 02:26:26;;;;;;;;;6.50;5.00;;;;;9.09;100.00;99147.19;5037237;28;45455;-61
2022/01/04 02:28:52;;;;;;;;;7.50;7.50;;;;;9.12;100.00;99145.22;5037466;28;45355;-62
2022/01/04 02:31:18;;;;;;;;;6.25;6.25;;;;;9.09;100.00;99141.94;5037859;28;45482;-63
2022/01/04 02:33:43;;;;;;;;;8.25;7.75;;;;;9.05;100.00;99141.25;5037485;28;47130;-65
2022/01/04 02:36:09;;;;;;;;;8.25;8.00;;;;;8.92;100.00;99114.88;5037470;28;45360;-63
2022/01/04 02:38:34;;;;;;;;;9.75;9.75;;;;;8.91;100.00;99103.56;5037363;28;45336;-62
2022/01/04 02:41:01;;;;;;;;;9.75;7.00;;;;;8.93;100.00;99111.31;5036356;28;45408;-64
2022/01/04 02:43:26;;;;;;;;;8.00;6.75;;;;;8.97;100.00;99112.84;5037638;28;46318;-65
2022/01/04 02:45:52;;;;;;;;;8.00;7.25;;;;;8.99;100.00;99108.34;5037798;28;45322;-64
2022/01/04 02:48:17;;;;;;;;;6.00;6.00;;;;;8.96;100.00;99105.91;5037504;28;45319;-66
2022/01/04 02:50:42;;;;;;;;;9.25;9.25;;;;;8.92;100.00;99091.28;5038030;28;45217;-63
2022/01/04 02:53:08;;;;;;;;;7.00;6.75;;;;;8.90;100.00;99095.75;5037999;28;45257;-64
2022/01/04 02:55:33;;;;;;;;;5.25;4.50;;;;;8.87;100.00;99082.81;5038160;28;45252;-63
2022/01/04 02:57:59;;;;;;;;;7.75;7.00;;;;;8.84;100.00;99073.38;5044340;28;45407;-65
2022/01/04 03:00:25;;;;;;;;;4.00;4.00;;;;;8.72;100.00;99069.66;5039810;28;45405;-63
2022/01/04 03:02:52;;;;;;;;;5.75;5.75;;;;;8.68;100.00;99064.69;5036682;28;46206;-64
2022/01/04 03:05:17;;;;;;;;;4.50;4.50;;;;;8.67;100.00;99055.13;5037231;28;45411;-66
2022/01/04 03:07:43;;;;;;;;;7.50;7.25;;;;;8.64;100.00;99050.91;5036952;28;45673;-63
2022/01/04 03:10:09;;;;;;;;;3.00;3.00;;;;;8.56;100.00;99038.25;5037574;28;45539;-62
2022/01/04 03:12:35;;;;;;;;;4.00;3.75;;;;;8.56;100.00;99045.25;5036894;28;46041;-62
2022/01/04 03:15:01;;;;;;;;;4.25;3.50;;;;;8.55;100.00;99046.19;5037005;28;45257;-63
2022/01/04 03:17:26;;;;;;;;;4.00;3.50;;;;;8.54;100.00;99042.72;5036865;28;45253;-63
2022/01/04 03:19:52;;;;;;;;;5.00;3.00;;;;;8.45;100.00;99025.72;5036987;28;45416;-63
2022/01/04 03:22:17;;;;;;;;;8.50;6.00;;;;;8.48;100.00;99030.78;5037148;28;48723;-65
2022/01/04 03:24:42;;;;;;;;;2.00;2.00;;;;;8.45;100.00;99028.31;5037323;28;45301;-66
2022/01/04 03:27:08;;;;;;;;;2.00;2.00;;;;;8.39;100.00;99010.34;5037194;28;45436;-64
2022/01/04 03:29:33;;;;;;;;;2.00;2.00;;;;;8.45;100.00;99015.22;5036777;28;45209;-63
2022/01/04 03:31:59;;;;;;;;;1.50;1.50;;;;;8.42;100.00;99004.06;5038588;28;46252;-65
2022/01/04 03:34:25;;;;;;;;;2.50;2.50;;;;;8.46;100.00;99010.81;5037058;28;45422;-65
2022/01/04 03:36:51;;;;;;;;;2.00;2.00;;;;;8.45;100.00;99001.25;5037251;28;45345;-63
2022/01/04 03:39:16;;;;;;;;;4.00;2.00;;;;;8.42;100.00;98997.06;5037972;28;45526;-66
2022/01/04 03:41:45;;;;;;;;;3.00;3.00;;;;;8.44;100.00;98997.81;5037686;28;46610;-64
2022/01/04 03:44:18;;;;;;;;;2.50;2.50;;;;;8.43;100.00;98987.41;5036587;28;45408;-64
2022/01/04 03:46:45;;;;;;;;;2.00;2.00;;;;;8.51;100.00;98998.34;5038779;28;45431;-62
2022/01/04 03:49:10;;;;;;;;;2.25;2.25;;;;;8.49;100.00;98992.34;5036574;28;45608;-64
2022/01/04 03:51:36;;;;;;;;;4.25;3.00;;;;;8.51;100.00;98994.88;5036290;28;46274;-65
2022/01/04 03:54:02;;;;;;;;;10.50;7.50;;;;;8.54;100.00;98995.56;5018142;28;45380;-65
2022/01/04 03:56:28;;;;;;;;;10.75;10.25;;;;;8.56;100.00;99001.56;5036224;28;45352;-65
2022/01/04 03:58:53;;;;;;;;;13.25;13.00;;;;;8.57;100.00;98991.91;5037202;28;45330;-63
2022/01/04 04:01:20;;;;;;;;;17.50;11.25;;;;;8.53;100.00;98988.63;5036585;28;46774;-65
2022/01/04 04:03:45;;;;;;;;;9.25;7.75;;;;;8.52;100.00;98992.19;5036095;28;45351;-64
2022/01/04 04:06:11;;;;;;;;;7.00;6.00;;;;;8.49;100.00;98987.13;5036138;28;45356;-66
2022/01/04 04:08:36;;;;;;;;;2.00;2.00;;;;;8.44;100.00;98989.09;5036215;28;45415;-65
2022/01/04 04:11:02;;;;;;;;;4.00;3.00;;;;;8.38;100.00;98981.59;5035664;28;46448;-64
2022/01/04 04:13:27;;;;;;;;;2.25;2.25;;;;;8.42;100.00;98991.81;5036197;28;45296;-64
2022/01/04 04:15:52;;;;;;;;;3.00;2.25;;;;;8.42;100.00;98990.97;5035918;28;45391;-61
2022/01/04 04:18:18;;;;;;;;;3.00;2.25;;;;;8.40;100.00;98988.44;5037077;28;45277;-66
2022/01/04 04:20:44;;;;;;;;;2.75;2.75;;;;;8.43;100.00;98984.78;5036005;28;46073;-64
2022/01/04 04:23:10;;;;;;;;;5.25;3.50;;;;;8.42;100.00;98997.06;5035726;28;45332;-63
2022/01/04 04:25:36;;;;;;;;;4.00;2.50;;;;;8.50;100.00;99001.06;5036010;28;45241;-62
2022/01/04 04:28:01;;;;;;;;;2.50;2.50;;;;;8.51;100.00;98989.63;5037300;28;45201;-63
2022/01/04 04:30:27;;;;;;;;;1.00;1.00;;;;;8.50;100.00;98993.19;5039611;28;46608;-61
2022/01/04 04:32:52;;;;;;;;;4.00;2.75;;;;;8.47;100.00;98995.03;5037352;28;45266;-65
2022/01/04 04:35:18;;;;;;;;;2.00;2.00;;;;;8.46;100.00;98995.09;5035714;28;45537;-65
2022/01/04 04:37:44;;;;;;;;;2.50;1.50;;;;;8.44;100.00;98995.19;5051858;28;45711;-66
2022/01/04 04:40:10;;;;;;;;;1.25;1.25;;;;;8.47;100.00;98994.16;5054550;28;46191;-65
2022/01/04 04:42:35;;;;;;;;;1.25;1.25;;;;;8.45;100.00;98999.50;5055786;28;45357;-64
2022/01/04 04:45:02;;;;;;;;;1.75;1.75;;;;;8.48;100.00;99003.72;5055859;28;45409;-62
2022/01/04 04:47:27;;;;;;;;;2.75;1.00;;;;;8.45;100.00;99001.25;5055936;28;45435;-65
2022/01/04 04:49:53;;;;;;;;;1.25;1.25;;;;;8.43;100.00;99017.09;5055419;28;45676;-62
2022/01/04 04:52:19;;;;;;;;;3.00;1.00;;;;;8.40;100.00;99022.50;5056145;28;45402;-63
2022/01/04 04:54:44;;;;;;;;;3.75;1.25;;;;;8.29;100.00;99010.00;5055762;28;45384;-65
2022/01/04 04:57:09;;;;;;;;;1.75;1.75;;;;;8.31;100.00;99020.41;5055903;28;45237;-64
2022/01/04 04:59:35;;;;;;;;;1.25;0.00;;;;;8.28;100.00;99021.41;5055508;28;46062;-65
2022/01/04 05:02:01;;;;;;;;;2.00;0.00;;;;;8.24;100.00;99021.69;5055680;28;45245;-64
2022/01/04 05:04:27;;;;;;;;;0.00;0.00;;;;;8.22;100.00;99021.75;5055674;28;45241;-63
2022/01/04 05:06:53;;;;;;;;;1.00;1.00;;;;;8.11;100.00;99014.50;5055948;28;45192;-66
2022/01/04 05:09:19;;;;;;;;;0.00;0.00;;;;;8.16;100.00;99029.94;5055125;28;46067;-62
2022/01/04 05:11:44;;;;;;;;;1.00;1.00;;;;;8.16;100.00;99028.19;5055236;28;45425;-65
2022/01/04 05:14:09;;;;;;;;;1.00;1.00;;;;;8.22;100.00;99020.91;5055555;28;45343;-64
2022/01/04 05:16:35;;;;;;;;;1.00;1.00;;;;;8.21;100.00;99033.16;5055803;28;45529;-64
2022/01/04 05:19:00;;;;;;;;;3.00;3.00;;;;;8.22;100.00;99034.00;5055755;28;46302;-65
2022/01/04 05:21:25;;;;;;;;;3.00;2.25;;;;;8.22;100.00;99037.47;5055509;28;45445;-64
2022/01/04 05:23:52;;;;;;;;;4.00;2.25;;;;;8.24;100.00;99040.84;5055381;28;45383;-65
2022/01/04 05:26:18;;;;;;;;;1.25;1.25;;;;;8.28;100.00;99036.28;5055485;28;45367;-64
2022/01/04 05:28:45;;;;;;;;;1.50;1.00;;;;;8.26;100.00;99049.47;5054889;28;45388;-62
2022/01/04 05:31:11;;;;;;;;;2.25;2.00;;;;;8.22;100.00;99042.69;5055175;28;45269;-64
2022/01/04 05:33:37;;;;;;;;;4.00;2.50;;;;;8.22;100.00;99047.94;5055422;28;45324;-63
2022/01/04 05:36:03;;;;;;;;;1.75;1.75;;;;;8.18;100.00;99047.28;5056155;28;45554;-64
2022/01/04 05:38:28;;;;;;;;;1.25;1.00;;;;;8.19;100.00;99040.25;5056473;28;47274;-64
2022/01/04 05:40:53;;;;;;;;;3.00;3.00;;;;;8.18;100.00;99044.66;5056406;28;45217;-63
2022/01/04 05:43:19;;;;;;;;;3.00;3.00;;;;;8.12;100.00;99033.66;5056588;28;45325;-62
2022/01/04 05:45:44;;;;;;;;;2.00;2.00;;;;;8.10;100.00;99043.38;5059872;28;48033;-62
2022/01/04 05:48:10;;;;;;;;;2.00;2.00;;;;;8.06;100.00;99044.47;5058224;28;46243;-62
2022/01/04 05:50:35;;;;;;;;;1.75;1.75;;;;;8.01;100.00;99042.94;5058263;28;45318;-62
2022/01/04 05:53:00;;;;;;;;;3.75;3.00;;;;;7.95;100.00;99035.44;5058310;28;45414;-62
2022/01/04 05:55:25;;;;;;;;;5.00;2.75;;;;;8.01;100.00;99047.34;5058666;28;45540;-64
2022/01/04 05:57:51;;;;;;;;;3.00;3.00;;;;;8.01;100.00;99037.72;5058228;28;45399;-64
2022/01/04 06:00:17;;;;;;;;;4.00;3.00;;;;;8.02;100.00;99043.81;5060435;28;45442;-62
2022/01/04 06:02:43;;;;;;;;;3.00;3.00;;;;;7.97;100.00;99049.28;5062196;28;45289;-63
2022/01/04 06:05:09;;;;;;;;;2.00;2.00;;;;;7.99;100.00;99052.66;5061192;28;45380;-62
2022/01/04 06:07:35;;;;;;;;;2.25;2.25;;;;;7.95;100.00;99043.28;5058249;28;46380;-63
2022/01/04 06:10:01;;;;;;;;;4.75;4.25;;;;;7.97;100.00;99040.59;5057898;28;45319;-62
2022/01/04 06:14:58;;;;;;;;;6.25;6.25;;;;;8.06;100.00;99042.72;5058531;28;45474;-62
2022/01/04 06:17:32;;;;;;;;;9.25;9.25;;;;;8.07;100.00;99030.44;5057802;28;46125;-62
2022/01/04 06:19:58;;;;;;;;;6.00;6.00;;;;;8.04;100.00;99028.88;5058117;28;45356;-62
2022/01/04 06:22:25;;;;;;;;;6.50;5.00;;;;;8.02;100.00;99026.31;5057674;28;45431;-63
2022/01/04 06:24:51;;;;;;;;;8.25;6.75;;;;;8.02;100.00;99031.53;5040073;28;45275;-61
2022/01/04 06:27:17;;;;;;;;;6.50;5.75;;;;;8.09;100.00;99049.53;5057667;28;46329;-62
2022/01/04 06:29:42;;;;;;;;;6.00;5.75;;;;;8.08;100.00;99053.09;5057819;28;45388;-64
2022/01/04 06:32:09;;;;;;;;;4.00;3.25;;;;;8.08;100.00;99060.94;5057890;28;45249;-64
2022/01/04 06:34:35;;;;;;;;;5.00;5.00;;;;;8.03;100.00;99069.91;5057863;28;45462;-62
2022/01/04 06:37:01;;;;;;;;;5.00;4.00;;;;;8.02;100.00;99068.22;5039500;28;46362;-62
2022/01/04 06:39:27;;;;;;;;;5.50;4.00;;;;;8.04;100.00;99073.38;5058457;28;45418;-63
2022/01/04 06:41:53;;;;;;;;;4.00;4.00;;;;;8.03;100.00;99080.38;5058438;28;45285;-63
2022/01/04 06:44:18;;;;;;;;;4.25;4.25;;;;;8.01;100.00;99078.78;5058189;28;45454;-63
2022/01/04 06:46:46;;;;;;;;;7.50;6.00;;;;;8.01;100.00;99084.03;5057079;28;45451;-63
2022/01/04 06:49:14;;;;;;;;;3.00;3.00;;;;;8.00;100.00;99085.78;5057319;28;45353;-63
2022/01/04 06:51:40;;;;;;;;;2.00;2.00;;;;;7.97;100.00;99088.56;5059145;28;45564;-63
2022/01/04 06:54:07;;;;;;;;;2.50;2.00;;;;;7.94;100.00;99085.25;5057301;28;46080;-63
2022/01/04 06:56:32;;;;;;;;;2.00;2.00;;;;;7.90;100.00;99090.66;5055993;28;45330;-61
2022/01/04 06:58:57;;;;;;;;;6.75;4.25;;;;;7.88;100.00;99107.38;5057447;28;45350;-61
2022/01/04 07:01:23;;;;;;;;;4.25;2.50;;;;;7.82;100.00;99115.56;5057026;28;45682;-62
2022/01/04 07:03:48;;;;;;;;;2.75;2.75;;;;;7.79;100.00;99113.09;5057196;28;46098;-64
2022/01/04 07:06:13;;;;;;;;;5.75;4.75;;;;;7.79;100.00;99120.94;5056868;28;46005;-64
2022/01/04 07:08:39;;;;;;;;;6.00;6.00;;;;;7.82;100.00;99124.25;5058057;28;45423;-64
2022/01/04 07:11:05;;;;;;;;;3.00;1.00;;;;;7.77;100.00;99101.88;5058381;28;45760;-64
2022/01/04 07:13:30;;;;;;;;;2.25;2.25;;;;;7.81;100.00;99112.06;5045483;28;45652;-61
2022/01/04 07:15:56;;;;;;;;;3.75;2.25;;;;;7.80;100.00;99112.16;5057535;28;46335;-65
2022/01/04 07:18:21;;;;;;;;;4.25;4.25;;;;;7.84;100.00;99118.94;5056865;28;45312;-65
2022/01/04 07:20:46;;;;;;;;;4.00;4.00;;;;;7.83;100.00;99117.25;5057101;28;45776;-68
2022/01/04 07:23:12;;;;;;;;;2.50;2.25;;;;;7.83;100.00;99119.88;5056817;28;45624;-63
2022/01/04 07:25:37;;;;;;;;;3.25;1.50;;;;;7.85;100.00;99123.25;5056235;28;55971;-65
2022/01/04 07:28:03;;;;;;;;;3.00;3.00;;;;;7.86;100.00;99110.06;5057224;28;45174;-64
2022/01/04 07:30:28;;;;;;;;;4.00;2.00;;;;;7.87;100.00;99122.22;5057263;28;45272;-64
2022/01/04 07:32:53;;;;;;;;;2.00;2.00;;;;;7.82;100.00;99105.91;5057716;28;45243;-63
2022/01/04 07:35:19;;;;;;;;;2.75;2.00;;;;;7.87;100.00;99126.63;5057174;28;46114;-64
2022/01/04 07:37:44;;;;;;;;;1.50;1.00;;;;;7.85;100.00;99134.56;5057867;28;45419;-65
2022/01/04 07:40:10;;;;;;;;;4.00;2.00;;;;;7.79;100.00;99134.88;5057325;28;45546;-66
2022/01/04 07:42:36;;;;;;;;;3.00;2.00;;;;;7.84;100.00;99142.50;5056438;28;45374;-65
2022/01/04 07:45:02;;;;;;;;;5.25;3.00;;;;;7.84;100.00;99145.13;5057449;28;45304;-64
2022/01/04 07:47:28;;;;;;;;;4.50;4.00;;;;;7.89;100.00;99156.19;5057793;28;45425;-65
2022/01/04 07:49:54;;;;;;;;;4.50;2.75;;;;;7.89;100.00;99148.34;5057021;28;45514;-63
2022/01/04 07:52:19;;;;;;;;;6.00;5.50;;;;;7.90;100.00;99163.13;5056925;28;45545;-65
2022/01/04 07:54:44;;;;;;;;;6.50;5.50;;;;;7.87;100.00;99168.53;5056422;28;45927;-65
2022/01/04 07:57:10;;;;;;;;;5.00;5.00;;;;;7.85;100.00;99165.13;5056457;28;45358;-61
2022/01/04 07:59:35;;;;;;;;;7.50;7.00;;;;;7.81;100.00;99153.13;5038726;28;45296;-62
2022/01/04 08:02:01;;;;;;;;;7.00;7.00;;;;;7.89;100.00;99172.72;5057223;28;45130;-62
2022/01/04 08:04:26;;;;;;;;;7.25;6.50;;;;;7.92;100.00;99182.22;5056346;28;45633;-62
2022/01/04 08:06:52;;;;;;;;;6.25;6.25;;;;;7.93;100.00;99196.13;5056438;28;45447;-61
2022/01/04 08:09:17;;;;;;;;;6.50;5.25;;;;;7.90;100.00;99210.25;5056389;28;45344;-62
2022/01/04 08:11:42;;;;;;;;;11.50;8.50;;;;;7.90;100.00;99208.47;5056796;28;45226;-63
2022/01/04 08:14:08;;;;;;;;;3.50;3.50;;;;;7.89;100.00;99216.41;5054033;28;45482;-62
2022/01/04 08:16:34;;;;;;;;;11.00;8.25;;;;;7.93;100.00;99210.09;5051991;28;45552;-62
2022/01/04 08:19:00;;;;;;;;;11.25;11.25;;;;;7.96;100.00;99228.25;5056067;28;45390;-62
2022/01/04 08:21:25;;;;;;;;;10.50;9.00;;;;;7.99;100.00;99232.50;5057773;28;45590;-63
2022/01/04 08:23:51;;;;;;;;;7.75;5.50;;;;;8.00;100.00;99235.03;5056601;28;45920;-63
2022/01/04 08:26:16;;;;;;;;;7.50;7.50;;;;;8.01;100.00;99238.53;5041187;28;45446;-63
2022/01/04 08:28:42;;;;;;;;;4.25;3.00;;;;;7.98;100.00;99229.03;5056342;28;45331;-62
2022/01/04 08:31:07;;;;;;;;;3.25;3.25;;;;;8.04;100.00;99222.66;5046009;28;45629;-64
2022/01/04 08:33:32;;;;;;;;;6.00;6.00;;;;;8.01;100.00;99200.06;5055044;28;46035;-69
2022/01/04 08:35:58;;;;;;;;;6.00;6.00;;;;;8.14;100.00;99217.75;5037605;28;45366;-70
2022/01/04 08:38:23;;;;;;;;;3.25;2.00;;;;;8.15;100.00;99229.94;5053056;28;45552;-68
2022/01/04 08:40:49;;;;;;;;;3.00;3.00;;;;;8.11;100.00;99250.22;5040270;28;45557;-67
2022/01/04 08:43:14;;;;;;;;;4.00;4.00;;;;;8.10;100.00;99242.41;5035705;28;45954;-67
2022/01/04 08:45:40;;;;;;;;;1.00;1.00;;;;;8.09;100.00;99254.69;5052544;28;45423;-67
2022/01/04 08:48:05;;;;;;;;;6.00;5.00;;;;;8.09;100.00;99243.34;5058447;28;45329;-67
2022/01/04 08:50:31;;;;;;;;;5.00;3.75;;;;;8.15;100.00;99250.88;5076227;28;45139;-67
2022/01/04 08:52:57;;;;;;;;;5.50;2.00;;;;;8.15;100.00;99261.38;5071644;28;45419;-67
2022/01/04 08:55:23;;;;;;;;;2.00;2.00;;;;;8.15;100.00;99270.09;5063904;28;45343;-67
2022/01/04 08:57:49;;;;;;;;;1.00;1.00;;;;;8.12;100.00;99261.53;5056044;28;45359;-65
2022/01/04 09:00:15;;;;;;;;;2.50;2.00;;;;;8.09;100.00;99256.44;5057090;28;45420;-69
2022/01/04 09:02:41;;;;;;;;;5.75;4.00;;;;;8.11;100.00;99262.44;5076426;28;46309;-67
2022/01/04 09:05:07;;;;;;;;;5.00;5.00;;;;;8.13;100.00;99257.97;5071569;28;45350;-66
2022/01/04 09:07:32;;;;;;;;;4.00;3.00;;;;;8.16;100.00;99263.06;5059792;28;45300;-66
2022/01/04 09:09:58;;;;;;;;;3.00;3.00;;;;;8.11;100.00;99251.97;5058766;28;45489;-67
2022/01/04 09:12:28;;;;;;;;;4.00;2.00;;;;;8.19;100.00;99268.13;5055672;28;46033;-67
2022/01/04 09:14:57;;;;;;;;;3.00;3.00;;;;;8.19;100.00;99268.13;5053526;28;45552;-66
2022/01/04 09:20:11;;;;;;;;;2.50;2.50;;;;;8.26;100.00;99287.03;5059134;28;45421;-68
2022/01/04 09:22:37;;;;;;;;;8.00;7.00;;;;;8.25;100.00;99267.81;5042916;28;45328;-67
2022/01/04 09:25:03;;;;;;;;;9.00;7.00;;;;;8.30;100.00;99260.56;5043017;28;45340;-65
2022/01/04 09:27:29;;;;;;;;;10.00;9.25;;;;;8.38;100.00;99264.56;5051503;28;45468;-67
2022/01/04 09:29:55;;;;;;;;;16.75;14.00;;;;;8.45;100.00;99261.56;5046544;28;45509;-69
2022/01/04 09:32:21;;;;;;;;;10.00;7.50;;;;;8.53;100.00;99266.44;5045074;28;46322;-69
2022/01/04 09:34:46;;;;;;;;;6.50;6.00;;;;;8.58;100.00;99263.56;5069458;28;45486;-68
2022/01/04 09:37:13;;;;;;;;;5.00;5.00;;;;;8.59;100.00;99260.88;5056510;28;46067;-69
2022/01/04 09:39:38;;;;;;;;;7.00;5.50;;;;;8.60;100.00;99270.41;5067632;28;45451;-69
2022/01/04 09:42:04;;;;;;;;;8.25;6.50;;;;;8.64;100.00;99259.78;5063679;28;46137;-69
2022/01/04 09:44:30;;;;;;;;;4.50;4.50;;;;;8.72;100.00;99254.97;5059093;28;45383;-69
2022/01/04 09:46:56;;;;;;;;;6.50;2.00;;;;;8.75;100.00;99253.00;5051128;28;45577;-65
2022/01/04 09:49:21;;;;;;;;;3.00;3.00;;;;;8.73;100.00;99260.09;5053912;28;45565;-68
2022/01/04 09:51:49;;;;;;;;;5.00;3.00;;;;;8.76;100.00;99273.06;5057606;28;45780;-74
2022/01/04 09:54:24;;;;;;;;;7.00;6.00;;;;;8.82;100.00;99285.00;5039609;28;45499;-68
2022/01/04 09:56:50;;;;;;;;;6.25;5.75;;;;;8.89;100.00;99288.97;5044936;28;45344;-72
2022/01/04 09:59:16;;;;;;;;;5.00;4.00;;;;;8.97;100.00;99291.19;5045240;28;45411;-74
2022/01/04 10:01:45;;;;;;;;;5.00;5.00;;;;;8.98;100.00;99295.50;5037838;28;46052;-71
2022/01/04 10:04:11;;;;;;;;;6.75;6.00;;;;;9.05;100.00;99301.25;5052501;28;45480;-70
2022/01/04 10:06:39;;;;;;;;;7.25;6.00;;;;;9.09;100.00;99299.34;5052285;28;45264;-71
2022/01/04 10:09:11;;;;;;;;;8.50;7.00;;;;;9.09;100.00;99308.03;5057729;28;45327;-73
2022/01/04 10:11:43;;;;;;;;;6.00;4.25;;;;;9.08;100.00;99310.75;5041666;28;45674;-72
2022/01/04 10:14:31;;;;;;;;;15.50;11.00;;;;;9.08;100.00;99323.88;5040339;28;45969;-67
2022/01/04 10:17:02;;;;;;;;;10.75;7.00;;;;;9.11;100.00;99327.16;5042795;28;45408;-70
2022/01/04 10:19:40;;;;;;;;;9.00;8.50;;;;;9.16;100.00;99326.94;5056005;28;45424;-69
2022/01/04 10:22:32;;;;;;;;;8.50;8.00;;;;;9.19;100.00;99330.22;5023483;28;46341;-69
2022/01/04 10:25:00;;;;;;;;;6.75;6.75;;;;;9.25;100.00;99325.56;5057276;28;45415;-69
2022/01/04 10:27:33;;;;;;;;;10.50;10.50;;;;;9.28;100.00;99330.63;5057384;28;45312;-71
2022/01/04 10:30:19;;;;;;;;;8.00;8.00;;;;;9.35;100.00;99314.47;5052015;28;45810;-72
2022/01/04 10:32:55;;;;;;;;;8.25;7.00;;;;;9.42;100.00;99301.84;5042234;28;46153;-69
2022/01/04 10:35:36;;;;;;;;;5.50;5.50;;;;;9.46;100.00;99319.13;5043910;28;45404;-72
2022/01/04 10:38:21;;;;;;;;;8.75;5.75;;;;;9.49;100.00;99315.50;5057319;28;45407;-70
2022/01/04 10:40:51;;;;;;;;;6.50;5.75;;;;;9.42;100.00;99291.34;5058380;28;45532;-67
2022/01/04 10:43:21;;;;;;;;;9.00;9.00;;;;;9.59;100.00;99300.91;5067349;28;45375;-68
2022/01/04 10:45:48;;;;;;;;;6.75;6.25;;;;;9.64;100.00;99292.78;5045873;28;45553;-71
2022/01/04 10:48:20;;;;;;;;;8.00;5.75;;;;;9.73;100.00;99288.78;5036303;28;45453;-70
2022/01/04 10:50:49;;;;;;;;;4.00;4.00;;;;;9.77;100.00;99293.78;5044103;28;45594;-68
2022/01/04 10:53:21;;;;;;;;;4.25;4.25;;;;;9.83;100.00;99296.97;5042725;28;45475;-74
2022/01/04 10:55:47;;;;;;;;;5.25;4.25;;;;;9.80;100.00;99295.34;5048751;28;45338;-67
2022/01/04 10:58:22;;;;;;;;;7.00;4.75;;;;;9.81;100.00;99296.22;5057456;28;45457;-65
2022/01/04 11:00:54;;;;;;;;;7.00;4.50;;;;;9.84;100.00;99299.50;5021125;28;45315;-70
2022/01/04 11:03:28;;;;;;;;;9.25;7.00;;;;;9.85;100.00;99298.56;5038411;28;45341;-67
2022/01/04 11:05:59;;;;;;;;;4.00;4.00;;;;;9.89;100.00;99291.38;5049265;28;45592;-66
2022/01/04 11:08:24;;;;;;;;;3.00;3.00;;;;;9.88;100.00;99289.69;5050725;28;45435;-67
2022/01/04 11:10:51;;;;;;;;;4.25;4.00;;;;;9.82;100.00;99296.13;5055834;28;45573;-68
2022/01/04 11:13:16;;;;;;;;;5.25;5.00;;;;;9.81;100.00;99297.06;5056673;28;46387;-67
2022/01/04 11:15:42;;;;;;;;;6.00;6.00;;;;;9.82;100.00;99284.78;5056499;28;45368;-67
2022/01/04 11:18:08;;;;;;;;;6.50;5.25;;;;;9.86;100.00;99288.91;5057306;28;45370;-68
2022/01/04 11:20:38;;;;;;;;;6.00;5.50;;;;;9.89;100.00;99291.38;5057944;28;45174;-68
2022/01/04 11:23:05;;;;;;;;;4.25;3.25;;;;;9.91;100.00;99294.75;5056604;28;46413;-67
2022/01/04 11:25:30;;;;;;;;;5.00;4.25;;;;;9.92;100.00;99294.66;5057822;28;45181;-68
2022/01/04 11:27:57;;;;;;;;;8.00;5.75;;;;;9.94;100.00;99286.69;5058732;28;45391;-68
2022/01/04 11:30:31;;;;;;;;;4.50;4.50;;;;;9.99;100.00;99303.03;5056762;28;45656;-68
2022/01/04 11:33:13;;;;;;;;;4.75;4.00;;;;;10.00;100.00;99301.22;5056176;28;46317;-67
2022/01/04 11:35:39;;;;;;;;;5.50;5.50;;;;;10.01;100.00;99297.66;5038233;28;45437;-68
2022/01/04 11:38:04;;;;;;;;;3.00;3.00;;;;;9.99;100.00;99308.28;5056624;28;45342;-68